Cedar City Regional Airport
KCDC : now visible

Airfield :











YOU CAN JOIN US ON...

 
LOGIN :

Register | Disclaimer

   EN    FR    IT 

 









Legend :    VFR   Marginal VFR   IFR   Intensive IFR   Very Intensive IFR
Visi :
Ceiling :
>= 8 km
>= 3000ft
5 to 8 km
1000 to 3000 ft
1500m to 5 km
500 to 1000 ft
800 to 1500m
200 to 500 ft
< 800m
< 200 ft
Symbols :   Thunderstorms  Fog  Heavy snow  Heavy precipitations  Wind > 20 kt






- Airport Elevation : 5622 ft
- IATA code : CDC


KCDC - Cedar City Regional

CURRENT METAR :
  • 070153Z AUTO 27005KT 10SM SCT026 BKN065 00/M03 A3004 RMK AO2 SLP179 T00001028

EXPIRED METARs :
  • 070053Z AUTO 33005KT 10SM CLR 01/M02 A3002 RMK AO2 SLP171 T00111022
  • 062353Z AUTO 00000KT 10SM BKN031 OVC065 04/00 A3001 RMK AO2 SLP159 T00440000 10050 20011 53003

TAF KCDC
Valid from the 07 at 00:00 until the 08 at 00:00 UTC


062329Z 0700/0724 VRB03KT P6SM VCSH SCT040 OVC070
FM070600 VRB04KT P6SM VCSH BKN015 OVC050
FM071200 VRB04KT 4SM BR VCSH OVC007
KZLC FIR / North America



MET'MAP, your aeronautical weather chart ! - Copyright ORBIFLY December 2007 - Disclaimer

ORBIFLY MET'MAP TEAM :

Programming & Development : Alexandra Zaïnal
Original concept : Baudouin d'Aumeries
Technical & hardware support : Manuel Goepfert
Assistance : Marc-Olivier Méhu




SOURCES & CREDITS :

   NOAA       Earth
Advisory